sensor_id;sensor_type;location;lat;lon;timestamp;temperature;humidity
31731;DHT22;18310;55.586;12.286;2022-07-29T00:00:00;16.10;63.80
31731;DHT22;18310;55.586;12.286;2022-07-29T00:03:04;16.10;63.80
31731;DHT22;18310;55.586;12.286;2022-07-29T00:06:09;18.60;65.30
31731;DHT22;18310;55.586;12.286;2022-07-29T00:09:12;16.00;64.10
31731;DHT22;18310;55.586;12.286;2022-07-29T00:12:16;18.00;65.10
31731;DHT22;18310;55.586;12.286;2022-07-29T00:15:26;16.00;64.10
31731;DHT22;18310;55.586;12.286;2022-07-29T00:18:30;15.90;64.10
31731;DHT22;18310;55.586;12.286;2022-07-29T00:21:35;13.70;62.70
31731;DHT22;18310;55.586;12.286;2022-07-29T00:24:38;15.90;63.90
31731;DHT22;18310;55.586;12.286;2022-07-29T00:27:41;15.90;63.80
31731;DHT22;18310;55.586;12.286;2022-07-29T00:30:44;17.80;64.80
31731;DHT22;18310;55.586;12.286;2022-07-29T00:33:48;14.50;63.10
31731;DHT22;18310;55.586;12.286;2022-07-29T00:36:52;15.70;64.20
31731;DHT22;18310;55.586;12.286;2022-07-29T00:39:54;15.70;64.20
31731;DHT22;18310;55.586;12.286;2022-07-29T00:42:59;15.70;64.30
31731;DHT22;18310;55.586;12.286;2022-07-29T00:46:03;15.70;64.30
31731;DHT22;18310;55.586;12.286;2022-07-29T00:49:07;15.70;64.40
31731;DHT22;18310;55.586;12.286;2022-07-29T00:52:12;16.30;64.90
31731;DHT22;18310;55.586;12.286;2022-07-29T00:55:18;15.60;64.50
31731;DHT22;18310;55.586;12.286;2022-07-29T00:58:21;14.30;63.50
31731;DHT22;18310;55.586;12.286;2022-07-29T01:01:25;15.60;64.50
31731;DHT22;18310;55.586;12.286;2022-07-29T01:04:31;15.50;64.20
31731;DHT22;18310;55.586;12.286;2022-07-29T01:07:36;15.50;64.20
31731;DHT22;18310;55.586;12.286;2022-07-29T01:10:40;15.50;64.40
31731;DHT22;18310;55.586;12.286;2022-07-29T01:13:47;15.50;64.60
31731;DHT22;18310;55.586;12.286;2022-07-29T01:16:54;15.20;64.50
31731;DHT22;18310;55.586;12.286;2022-07-29T01:20:10;13.20;63.80
31731;DHT22;18310;55.586;12.286;2022-07-29T01:27:19;15.30;65.90
31731;DHT22;18310;55.586;12.286;2022-07-29T01:30:38;15.30;66.10
31731;DHT22;18310;55.586;12.286;2022-07-29T01:33:49;15.30;65.10
31731;DHT22;18310;55.586;12.286;2022-07-29T01:37:01;15.20;65.10
31731;DHT22;18310;55.586;12.286;2022-07-29T01:40:14;13.00;64.10
31731;DHT22;18310;55.586;12.286;2022-07-29T01:43:27;15.10;65.50
31731;DHT22;18310;55.586;12.286;2022-07-29T01:46:39;13.50;64.90
31731;DHT22;18310;55.586;12.286;2022-07-29T01:49:50;15.00;65.60
31731;DHT22;18310;55.586;12.286;2022-07-29T01:52:57;15.00;65.40
31731;DHT22;18310;55.586;12.286;2022-07-29T01:56:06;15.00;65.40
31731;DHT22;18310;55.586;12.286;2022-07-29T01:59:12;15.00;65.70
31731;DHT22;18310;55.586;12.286;2022-07-29T02:02:21;14.90;65.50
31731;DHT22;18310;55.586;12.286;2022-07-29T02:05:27;12.80;64.70
31731;DHT22;18310;55.586;12.286;2022-07-29T02:08:32;14.90;66.00
31731;DHT22;18310;55.586;12.286;2022-07-29T02:11:38;12.60;64.70
31731;DHT22;18310;55.586;12.286;2022-07-29T02:14:45;14.80;66.00
31731;DHT22;18310;55.586;12.286;2022-07-29T02:17:55;14.80;66.40
31731;DHT22;18310;55.586;12.286;2022-07-29T02:21:03;14.70;66.70
31731;DHT22;18310;55.586;12.286;2022-07-29T02:24:16;16.20;67.30
31731;DHT22;18310;55.586;12.286;2022-07-29T02:27:22;14.80;66.50
31731;DHT22;18310;55.586;12.286;2022-07-29T02:30:28;15.20;66.80
31731;DHT22;18310;55.586;12.286;2022-07-29T02:33:35;14.80;66.40
31731;DHT22;18310;55.586;12.286;2022-07-29T02:36:41;14.70;66.40
31731;DHT22;18310;55.586;12.286;2022-07-29T02:39:52;14.70;66.30
31731;DHT22;18310;55.586;12.286;2022-07-29T02:42:57;14.90;66.70
31731;DHT22;18310;55.586;12.286;2022-07-29T02:46:01;14.70;66.40
31731;DHT22;18310;55.586;12.286;2022-07-29T02:49:35;15.00;67.30
31731;DHT22;18310;55.586;12.286;2022-07-29T02:52:43;14.60;66.70
31731;DHT22;18310;55.586;12.286;2022-07-29T02:55:55;16.20;67.40
31731;DHT22;18310;55.586;12.286;2022-07-29T02:59:03;14.60;66.70
31731;DHT22;18310;55.586;12.286;2022-07-29T03:02:09;14.60;66.50
31731;DHT22;18310;55.586;12.286;2022-07-29T03:05:19;15.60;67.00
31731;DHT22;18310;55.586;12.286;2022-07-29T03:08:24;14.60;66.70
31731;DHT22;18310;55.586;12.286;2022-07-29T03:11:29;16.10;68.00
31731;DHT22;18310;55.586;12.286;2022-07-29T03:14:51;14.50;66.60
31731;DHT22;18310;55.586;12.286;2022-07-29T03:17:56;14.50;66.60
31731;DHT22;18310;55.586;12.286;2022-07-29T03:21:01;14.50;66.60
31731;DHT22;18310;55.586;12.286;2022-07-29T03:24:06;14.40;67.00
31731;DHT22;18310;55.586;12.286;2022-07-29T03:27:11;14.40;67.00
31731;DHT22;18310;55.586;12.286;2022-07-29T03:30:15;15.60;67.90
31731;DHT22;18310;55.586;12.286;2022-07-29T03:33:23;14.40;67.50
31731;DHT22;18310;55.586;12.286;2022-07-29T03:36:27;14.30;67.50
31731;DHT22;18310;55.586;12.286;2022-07-29T03:39:34;14.40;68.00
31731;DHT22;18310;55.586;12.286;2022-07-29T03:42:43;16.60;69.30
31731;DHT22;18310;55.586;12.286;2022-07-29T03:45:51;14.40;67.70
31731;DHT22;18310;55.586;12.286;2022-07-29T03:48:59;14.50;67.80
31731;DHT22;18310;55.586;12.286;2022-07-29T03:52:07;15.20;68.30
31731;DHT22;18310;55.586;12.286;2022-07-29T03:55:12;14.50;67.80
31731;DHT22;18310;55.586;12.286;2022-07-29T03:58:16;16.80;69.00
31731;DHT22;18310;55.586;12.286;2022-07-29T04:01:22;14.50;68.40
31731;DHT22;18310;55.586;12.286;2022-07-29T04:04:27;14.60;68.10
31731;DHT22;18310;55.586;12.286;2022-07-29T04:07:32;14.60;68.20
31731;DHT22;18310;55.586;12.286;2022-07-29T04:10:35;16.30;69.20
31731;DHT22;18310;55.586;12.286;2022-07-29T04:13:40;14.60;68.20
31731;DHT22;18310;55.586;12.286;2022-07-29T04:16:43;16.30;69.40
31731;DHT22;18310;55.586;12.286;2022-07-29T04:19:47;14.80;68.70
31731;DHT22;18310;55.586;12.286;2022-07-29T04:22:51;14.80;68.80
31731;DHT22;18310;55.586;12.286;2022-07-29T04:25:54;14.90;69.30
31731;DHT22;18310;55.586;12.286;2022-07-29T04:28:57;15.00;69.40
31731;DHT22;18310;55.586;12.286;2022-07-29T04:32:01;15.00;69.30
31731;DHT22;18310;55.586;12.286;2022-07-29T04:35:04;15.20;69.50
31731;DHT22;18310;55.586;12.286;2022-07-29T04:38:09;15.30;69.90
31731;DHT22;18310;55.586;12.286;2022-07-29T04:41:17;15.50;71.20
31731;DHT22;18310;55.586;12.286;2022-07-29T04:44:21;16.00;72.00
31731;DHT22;18310;55.586;12.286;2022-07-29T04:47:29;16.60;71.80
31731;DHT22;18310;55.586;12.286;2022-07-29T04:50:33;17.20;72.20
31731;DHT22;18310;55.586;12.286;2022-07-29T04:53:37;18.00;71.50
31731;DHT22;18310;55.586;12.286;2022-07-29T04:56:40;18.70;69.90
31731;DHT22;18310;55.586;12.286;2022-07-29T04:59:44;19.50;69.50
31731;DHT22;18310;55.586;12.286;2022-07-29T05:02:47;18.60;67.00
31731;DHT22;18310;55.586;12.286;2022-07-29T05:05:50;20.90;66.30
31731;DHT22;18310;55.586;12.286;2022-07-29T05:08:55;21.60;64.90
31731;DHT22;18310;55.586;12.286;2022-07-29T05:11:58;22.30;62.90
31731;DHT22;18310;55.586;12.286;2022-07-29T05:15:01;22.80;62.00
31731;DHT22;18310;55.586;12.286;2022-07-29T05:18:05;24.00;60.90
31731;DHT22;18310;55.586;12.286;2022-07-29T05:21:09;23.90;59.60
31731;DHT22;18310;55.586;12.286;2022-07-29T05:24:15;24.40;57.70
31731;DHT22;18310;55.586;12.286;2022-07-29T05:27:20;24.90;56.50
31731;DHT22;18310;55.586;12.286;2022-07-29T05:30:23;25.20;56.20
31731;DHT22;18310;55.586;12.286;2022-07-29T05:33:26;25.60;55.50
31731;DHT22;18310;55.586;12.286;2022-07-29T05:36:37;25.90;54.80
31731;DHT22;18310;55.586;12.286;2022-07-29T05:39:42;26.20;54.30
31731;DHT22;18310;55.586;12.286;2022-07-29T05:42:51;26.50;53.30
31731;DHT22;18310;55.586;12.286;2022-07-29T05:45:54;26.70;52.30
31731;DHT22;18310;55.586;12.286;2022-07-29T05:48:58;26.80;51.90
31731;DHT22;18310;55.586;12.286;2022-07-29T05:52:01;27.60;51.80
31731;DHT22;18310;55.586;12.286;2022-07-29T05:55:06;27.00;50.60
31731;DHT22;18310;55.586;12.286;2022-07-29T05:58:10;27.00;49.30
31731;DHT22;18310;55.586;12.286;2022-07-29T06:01:14;26.90;49.50
31731;DHT22;18310;55.586;12.286;2022-07-29T06:04:17;26.90;49.40
31731;DHT22;18310;55.586;12.286;2022-07-29T06:07:21;26.90;49.50
31731;DHT22;18310;55.586;12.286;2022-07-29T06:10:26;26.90;49.50
31731;DHT22;18310;55.586;12.286;2022-07-29T06:13:30;26.90;48.90
31731;DHT22;18310;55.586;12.286;2022-07-29T06:16:35;26.90;48.80
31731;DHT22;18310;55.586;12.286;2022-07-29T06:19:38;26.90;48.50
31731;DHT22;18310;55.586;12.286;2022-07-29T06:22:42;27.60;48.30
31731;DHT22;18310;55.586;12.286;2022-07-29T06:25:46;27.00;48.00
31731;DHT22;18310;55.586;12.286;2022-07-29T06:28:50;27.00;48.00
31731;DHT22;18310;55.586;12.286;2022-07-29T06:31:53;27.10;47.90
31731;DHT22;18310;55.586;12.286;2022-07-29T06:34:56;27.20;47.40
31731;DHT22;18310;55.586;12.286;2022-07-29T06:38:19;27.10;47.30
31731;DHT22;18310;55.586;12.286;2022-07-29T06:41:34;27.10;47.30
31731;DHT22;18310;55.586;12.286;2022-07-29T06:44:38;27.10;47.60
31731;DHT22;18310;55.586;12.286;2022-07-29T06:47:41;27.20;47.30
31731;DHT22;18310;55.586;12.286;2022-07-29T06:50:44;27.30;47.30
31731;DHT22;18310;55.586;12.286;2022-07-29T06:53:48;27.40;47.20
31731;DHT22;18310;55.586;12.286;2022-07-29T06:57:05;27.50;46.70
31731;DHT22;18310;55.586;12.286;2022-07-29T07:00:09;28.00;46.40
31731;DHT22;18310;55.586;12.286;2022-07-29T07:03:13;27.70;45.70
31731;DHT22;18310;55.586;12.286;2022-07-29T07:06:16;27.70;46.10
31731;DHT22;18310;55.586;12.286;2022-07-29T07:09:20;27.80;45.90
31731;DHT22;18310;55.586;12.286;2022-07-29T07:12:24;27.80;45.70
31731;DHT22;18310;55.586;12.286;2022-07-29T07:15:28;27.80;45.50
31731;DHT22;18310;55.586;12.286;2022-07-29T07:18:40;27.60;45.80
31731;DHT22;18310;55.586;12.286;2022-07-29T07:21:43;27.90;46.30
31731;DHT22;18310;55.586;12.286;2022-07-29T07:24:47;27.30;46.50
31731;DHT22;18310;55.586;12.286;2022-07-29T07:27:51;27.20;46.50
31731;DHT22;18310;55.586;12.286;2022-07-29T07:30:55;27.10;46.70
31731;DHT22;18310;55.586;12.286;2022-07-29T07:33:58;26.90;46.70
31731;DHT22;18310;55.586;12.286;2022-07-29T07:37:01;26.30;46.60
31731;DHT22;18310;55.586;12.286;2022-07-29T07:40:05;26.70;47.10
31731;DHT22;18310;55.586;12.286;2022-07-29T07:43:11;26.50;47.20
31731;DHT22;18310;55.586;12.286;2022-07-29T07:46:14;26.30;47.00
31731;DHT22;18310;55.586;12.286;2022-07-29T07:49:18;26.00;47.40
31731;DHT22;18310;55.586;12.286;2022-07-29T07:52:21;25.70;47.80
31731;DHT22;18310;55.586;12.286;2022-07-29T07:55:25;25.50;47.80
31731;DHT22;18310;55.586;12.286;2022-07-29T07:58:30;25.40;48.60
31731;DHT22;18310;55.586;12.286;2022-07-29T08:01:33;24.90;48.80
31731;DHT22;18310;55.586;12.286;2022-07-29T08:04:56;24.60;49.00
31731;DHT22;18310;55.586;12.286;2022-07-29T08:08:01;24.40;49.20
31731;DHT22;18310;55.586;12.286;2022-07-29T08:11:04;24.20;49.90
31731;DHT22;18310;55.586;12.286;2022-07-29T08:14:12;24.00;50.20
31731;DHT22;18310;55.586;12.286;2022-07-29T08:17:15;23.70;50.40
31731;DHT22;18310;55.586;12.286;2022-07-29T08:20:19;23.60;50.90
31731;DHT22;18310;55.586;12.286;2022-07-29T08:23:22;23.40;51.30
31731;DHT22;18310;55.586;12.286;2022-07-29T08:26:26;23.50;51.40
31731;DHT22;18310;55.586;12.286;2022-07-29T08:29:30;23.40;51.70
31731;DHT22;18310;55.586;12.286;2022-07-29T08:32:34;23.30;51.60
31731;DHT22;18310;55.586;12.286;2022-07-29T08:35:54;23.30;51.80
31731;DHT22;18310;55.586;12.286;2022-07-29T08:38:59;23.20;51.60
31731;DHT22;18310;55.586;12.286;2022-07-29T08:42:03;23.10;52.10
31731;DHT22;18310;55.586;12.286;2022-07-29T08:45:09;23.00;51.70
31731;DHT22;18310;55.586;12.286;2022-07-29T08:48:13;22.90;51.60
31731;DHT22;18310;55.586;12.286;2022-07-29T08:51:19;22.90;51.80
31731;DHT22;18310;55.586;12.286;2022-07-29T08:54:23;22.90;52.30
31731;DHT22;18310;55.586;12.286;2022-07-29T08:57:29;22.90;51.60
31731;DHT22;18310;55.586;12.286;2022-07-29T09:00:37;22.90;52.10
31731;DHT22;18310;55.586;12.286;2022-07-29T09:03:46;24.10;52.60
31731;DHT22;18310;55.586;12.286;2022-07-29T09:06:52;22.90;51.40
31731;DHT22;18310;55.586;12.286;2022-07-29T09:10:02;23.00;51.40
31731;DHT22;18310;55.586;12.286;2022-07-29T09:13:07;23.30;51.20
31731;DHT22;18310;55.586;12.286;2022-07-29T09:16:12;23.10;51.40
31731;DHT22;18310;55.586;12.286;2022-07-29T09:19:37;23.00;51.50
31731;DHT22;18310;55.586;12.286;2022-07-29T09:22:46;23.40;51.90
31731;DHT22;18310;55.586;12.286;2022-07-29T09:25:50;22.90;51.80
31731;DHT22;18310;55.586;12.286;2022-07-29T09:28:54;22.80;52.20
31731;DHT22;18310;55.586;12.286;2022-07-29T09:31:58;22.80;52.30
31731;DHT22;18310;55.586;12.286;2022-07-29T09:35:19;22.90;52.70
31731;DHT22;18310;55.586;12.286;2022-07-29T09:38:24;24.30;53.80
31731;DHT22;18310;55.586;12.286;2022-07-29T09:41:27;22.60;53.00
31731;DHT22;18310;55.586;12.286;2022-07-29T09:44:42;22.60;53.00
31731;DHT22;18310;55.586;12.286;2022-07-29T09:47:47;22.70;53.10
31731;DHT22;18310;55.586;12.286;2022-07-29T09:50:51;22.70;52.90
31731;DHT22;18310;55.586;12.286;2022-07-29T09:53:55;22.70;52.80
31731;DHT22;18310;55.586;12.286;2022-07-29T09:56:58;22.60;52.90
31731;DHT22;18310;55.586;12.286;2022-07-29T10:00:05;22.60;52.70
31731;DHT22;18310;55.586;12.286;2022-07-29T10:03:12;22.60;52.70
31731;DHT22;18310;55.586;12.286;2022-07-29T10:06:16;22.50;52.70
31731;DHT22;18310;55.586;12.286;2022-07-29T10:09:19;22.40;52.60
31731;DHT22;18310;55.586;12.286;2022-07-29T10:12:23;22.30;52.80
31731;DHT22;18310;55.586;12.286;2022-07-29T10:15:28;22.30;53.20
31731;DHT22;18310;55.586;12.286;2022-07-29T10:18:38;22.30;53.00
31731;DHT22;18310;55.586;12.286;2022-07-29T10:21:41;22.30;52.90
31731;DHT22;18310;55.586;12.286;2022-07-29T10:24:46;22.30;53.00
31731;DHT22;18310;55.586;12.286;2022-07-29T10:27:50;22.20;52.90
31731;DHT22;18310;55.586;12.286;2022-07-29T10:30:58;20.90;52.50
31731;DHT22;18310;55.586;12.286;2022-07-29T10:34:13;22.10;52.90
31731;DHT22;18310;55.586;12.286;2022-07-29T10:37:30;22.20;53.10
31731;DHT22;18310;55.586;12.286;2022-07-29T10:40:54;22.10;53.30
31731;DHT22;18310;55.586;12.286;2022-07-29T10:44:25;22.20;53.30
31731;DHT22;18310;55.586;12.286;2022-07-29T10:47:29;22.30;52.40
31731;DHT22;18310;55.586;12.286;2022-07-29T10:50:57;22.30;51.80
31731;DHT22;18310;55.586;12.286;2022-07-29T10:54:04;22.40;51.30
31731;DHT22;18310;55.586;12.286;2022-07-29T10:57:12;22.40;51.40
31731;DHT22;18310;55.586;12.286;2022-07-29T11:00:31;22.40;50.90
31731;DHT22;18310;55.586;12.286;2022-07-29T11:03:46;24.20;52.10
31731;DHT22;18310;55.586;12.286;2022-07-29T11:07:08;22.40;51.00
31731;DHT22;18310;55.586;12.286;2022-07-29T11:10:24;22.40;51.50
31731;DHT22;18310;55.586;12.286;2022-07-29T11:13:46;22.40;50.80
31731;DHT22;18310;55.586;12.286;2022-07-29T11:17:01;22.40;51.10
31731;DHT22;18310;55.586;12.286;2022-07-29T11:20:35;23.30;51.90
31731;DHT22;18310;55.586;12.286;2022-07-29T11:23:42;22.60;51.60
31731;DHT22;18310;55.586;12.286;2022-07-29T11:27:06;22.40;51.70
31731;DHT22;18310;55.586;12.286;2022-07-29T11:30:10;22.80;52.10
31731;DHT22;18310;55.586;12.286;2022-07-29T11:33:34;22.90;52.50
31731;DHT22;18310;55.586;12.286;2022-07-29T11:37:23;22.90;52.00
31731;DHT22;18310;55.586;12.286;2022-07-29T11:41:23;23.00;52.60
31731;DHT22;18310;55.586;12.286;2022-07-29T11:44:53;23.10;52.70
31731;DHT22;18310;55.586;12.286;2022-07-29T11:47:59;23.20;52.60
31731;DHT22;18310;55.586;12.286;2022-07-29T11:51:22;23.20;52.50
31731;DHT22;18310;55.586;12.286;2022-07-29T11:54:34;23.20;52.50
31731;DHT22;18310;55.586;12.286;2022-07-29T11:58:00;23.20;52.90
31731;DHT22;18310;55.586;12.286;2022-07-29T12:01:05;23.10;53.10
31731;DHT22;18310;55.586;12.286;2022-07-29T12:04:09;21.00;52.20
31731;DHT22;18310;55.586;12.286;2022-07-29T12:07:14;23.10;53.30
31731;DHT22;18310;55.586;12.286;2022-07-29T12:10:17;23.00;53.70
31731;DHT22;18310;55.586;12.286;2022-07-29T12:13:39;23.10;53.90
31731;DHT22;18310;55.586;12.286;2022-07-29T12:16:42;23.10;54.40
31731;DHT22;18310;55.586;12.286;2022-07-29T12:19:46;23.10;54.30
31731;DHT22;18310;55.586;12.286;2022-07-29T12:22:51;24.80;55.30
31731;DHT22;18310;55.586;12.286;2022-07-29T12:25:58;23.20;54.50
31731;DHT22;18310;55.586;12.286;2022-07-29T12:29:03;23.30;54.70
31731;DHT22;18310;55.586;12.286;2022-07-29T12:32:16;24.20;55.10
31731;DHT22;18310;55.586;12.286;2022-07-29T12:35:20;23.30;54.60
31731;DHT22;18310;55.586;12.286;2022-07-29T12:38:24;23.30;54.80
31731;DHT22;18310;55.586;12.286;2022-07-29T12:41:28;23.30;54.80
31731;DHT22;18310;55.586;12.286;2022-07-29T12:44:49;23.30;55.50
31731;DHT22;18310;55.586;12.286;2022-07-29T12:47:53;23.30;55.60
31731;DHT22;18310;55.586;12.286;2022-07-29T12:50:59;23.30;55.50
31731;DHT22;18310;55.586;12.286;2022-07-29T12:54:05;23.20;55.70
31731;DHT22;18310;55.586;12.286;2022-07-29T12:57:12;23.20;56.00
31731;DHT22;18310;55.586;12.286;2022-07-29T13:00:23;23.20;56.10
31731;DHT22;18310;55.586;12.286;2022-07-29T13:03:27;23.20;56.50
31731;DHT22;18310;55.586;12.286;2022-07-29T13:06:38;23.20;56.60
31731;DHT22;18310;55.586;12.286;2022-07-29T13:09:46;23.20;56.70
31731;DHT22;18310;55.586;12.286;2022-07-29T13:13:06;23.20;57.00
31731;DHT22;18310;55.586;12.286;2022-07-29T13:16:12;23.20;57.20
31731;DHT22;18310;55.586;12.286;2022-07-29T13:19:16;23.20;57.40
31731;DHT22;18310;55.586;12.286;2022-07-29T13:22:21;23.20;57.40
31731;DHT22;18310;55.586;12.286;2022-07-29T13:25:28;23.20;57.60
31731;DHT22;18310;55.586;12.286;2022-07-29T13:28:33;23.20;57.60
31731;DHT22;18310;55.586;12.286;2022-07-29T13:31:38;23.20;57.70
31731;DHT22;18310;55.586;12.286;2022-07-29T13:34:41;23.20;58.00
31731;DHT22;18310;55.586;12.286;2022-07-29T13:37:44;23.10;58.10
31731;DHT22;18310;55.586;12.286;2022-07-29T13:40:48;23.10;58.40
31731;DHT22;18310;55.586;12.286;2022-07-29T13:43:51;23.00;58.60
31731;DHT22;18310;55.586;12.286;2022-07-29T13:46:56;22.90;58.70
31731;DHT22;18310;55.586;12.286;2022-07-29T13:50:00;22.80;59.10
31731;DHT22;18310;55.586;12.286;2022-07-29T13:53:06;22.80;59.40
31731;DHT22;18310;55.586;12.286;2022-07-29T13:56:09;22.70;59.50
31731;DHT22;18310;55.586;12.286;2022-07-29T13:59:12;22.80;59.30
31731;DHT22;18310;55.586;12.286;2022-07-29T14:02:17;22.80;59.70
31731;DHT22;18310;55.586;12.286;2022-07-29T14:05:20;22.80;59.70
31731;DHT22;18310;55.586;12.286;2022-07-29T14:08:23;21.90;59.10
31731;DHT22;18310;55.586;12.286;2022-07-29T14:11:27;22.90;59.50
31731;DHT22;18310;55.586;12.286;2022-07-29T14:14:30;22.90;59.50
31731;DHT22;18310;55.586;12.286;2022-07-29T14:17:35;22.40;59.20
31731;DHT22;18310;55.586;12.286;2022-07-29T14:20:38;23.20;59.50
31731;DHT22;18310;55.586;12.286;2022-07-29T14:23:43;22.90;59.20
31731;DHT22;18310;55.586;12.286;2022-07-29T14:26:48;23.00;59.20
31731;DHT22;18310;55.586;12.286;2022-07-29T14:29:51;23.00;59.30
31731;DHT22;18310;55.586;12.286;2022-07-29T14:32:56;22.90;59.20
31731;DHT22;18310;55.586;12.286;2022-07-29T14:35:59;23.00;59.40
31731;DHT22;18310;55.586;12.286;2022-07-29T14:39:02;22.20;58.70
31731;DHT22;18310;55.586;12.286;2022-07-29T14:42:06;23.00;59.00
31731;DHT22;18310;55.586;12.286;2022-07-29T14:45:09;23.00;59.10
31731;DHT22;18310;55.586;12.286;2022-07-29T14:48:14;23.00;59.10
31731;DHT22;18310;55.586;12.286;2022-07-29T14:51:18;23.00;58.80
31731;DHT22;18310;55.586;12.286;2022-07-29T14:54:21;24.40;59.30
31731;DHT22;18310;55.586;12.286;2022-07-29T14:57:24;23.00;58.40
31731;DHT22;18310;55.586;12.286;2022-07-29T15:00:28;24.40;59.00
31731;DHT22;18310;55.586;12.286;2022-07-29T15:03:35;22.90;57.80
31731;DHT22;18310;55.586;12.286;2022-07-29T15:06:38;22.90;57.40
31731;DHT22;18310;55.586;12.286;2022-07-29T15:09:43;24.30;58.00
31731;DHT22;18310;55.586;12.286;2022-07-29T15:12:50;22.80;57.20
31731;DHT22;18310;55.586;12.286;2022-07-29T15:15:54;22.90;57.00
31731;DHT22;18310;55.586;12.286;2022-07-29T15:19:02;22.90;56.70
31731;DHT22;18310;55.586;12.286;2022-07-29T15:22:05;22.90;56.40
31731;DHT22;18310;55.586;12.286;2022-07-29T15:25:09;22.50;56.10
31731;DHT22;18310;55.586;12.286;2022-07-29T15:28:12;22.80;56.30
31731;DHT22;18310;55.586;12.286;2022-07-29T15:31:16;22.80;56.60
31731;DHT22;18310;55.586;12.286;2022-07-29T15:34:22;22.70;56.40
31731;DHT22;18310;55.586;12.286;2022-07-29T15:37:25;22.70;56.30
31731;DHT22;18310;55.586;12.286;2022-07-29T15:40:49;22.70;56.10
31731;DHT22;18310;55.586;12.286;2022-07-29T15:43:52;22.70;55.90
31731;DHT22;18310;55.586;12.286;2022-07-29T15:46:56;22.60;56.00
31731;DHT22;18310;55.586;12.286;2022-07-29T15:50:07;22.60;55.90
31731;DHT22;18310;55.586;12.286;2022-07-29T15:53:16;22.60;55.90
31731;DHT22;18310;55.586;12.286;2022-07-29T15:56:19;22.60;55.90
31731;DHT22;18310;55.586;12.286;2022-07-29T15:59:23;22.60;55.80
31731;DHT22;18310;55.586;12.286;2022-07-29T16:02:27;22.60;55.50
31731;DHT22;18310;55.586;12.286;2022-07-29T16:05:31;22.30;54.80
31731;DHT22;18310;55.586;12.286;2022-07-29T16:08:34;22.60;55.20
31731;DHT22;18310;55.586;12.286;2022-07-29T16:11:38;22.50;55.00
31731;DHT22;18310;55.586;12.286;2022-07-29T16:14:41;22.40;54.90
31731;DHT22;18310;55.586;12.286;2022-07-29T16:17:45;22.40;55.10
31731;DHT22;18310;55.586;12.286;2022-07-29T16:20:49;22.40;55.20
31731;DHT22;18310;55.586;12.286;2022-07-29T16:23:53;22.40;55.50
31731;DHT22;18310;55.586;12.286;2022-07-29T16:26:56;24.00;56.20
31731;DHT22;18310;55.586;12.286;2022-07-29T16:30:00;22.30;55.70
31731;DHT22;18310;55.586;12.286;2022-07-29T16:33:03;23.50;56.40
31731;DHT22;18310;55.586;12.286;2022-07-29T16:36:10;22.40;55.90
31731;DHT22;18310;55.586;12.286;2022-07-29T16:39:19;22.20;56.10
31731;DHT22;18310;55.586;12.286;2022-07-29T16:42:22;22.10;56.20
31731;DHT22;18310;55.586;12.286;2022-07-29T16:45:45;22.10;56.40
31731;DHT22;18310;55.586;12.286;2022-07-29T16:48:51;22.10;56.40
31731;DHT22;18310;55.586;12.286;2022-07-29T16:51:56;22.00;56.60
31731;DHT22;18310;55.586;12.286;2022-07-29T16:55:00;22.00;57.30
31731;DHT22;18310;55.586;12.286;2022-07-29T16:58:03;22.00;57.10
31731;DHT22;18310;55.586;12.286;2022-07-29T17:01:07;22.00;57.60
31731;DHT22;18310;55.586;12.286;2022-07-29T17:04:10;21.90;57.50
31731;DHT22;18310;55.586;12.286;2022-07-29T17:07:17;21.90;57.40
31731;DHT22;18310;55.586;12.286;2022-07-29T17:10:20;21.90;57.20
31731;DHT22;18310;55.586;12.286;2022-07-29T17:13:28;21.80;57.00
31731;DHT22;18310;55.586;12.286;2022-07-29T17:16:31;21.80;57.10
31731;DHT22;18310;55.586;12.286;2022-07-29T17:19:35;21.50;56.90
31731;DHT22;18310;55.586;12.286;2022-07-29T17:22:40;21.70;57.20
31731;DHT22;18310;55.586;12.286;2022-07-29T17:25:43;21.70;57.50
31731;DHT22;18310;55.586;12.286;2022-07-29T17:28:46;21.60;57.50
31731;DHT22;18310;55.586;12.286;2022-07-29T17:31:50;21.60;57.50
31731;DHT22;18310;55.586;12.286;2022-07-29T17:34:54;21.50;57.70
31731;DHT22;18310;55.586;12.286;2022-07-29T17:37:58;21.50;57.80
31731;DHT22;18310;55.586;12.286;2022-07-29T17:41:02;21.40;57.80
31731;DHT22;18310;55.586;12.286;2022-07-29T17:44:10;21.40;57.70
31731;DHT22;18310;55.586;12.286;2022-07-29T17:47:14;21.40;57.90
31731;DHT22;18310;55.586;12.286;2022-07-29T17:50:17;21.30;58.00
31731;DHT22;18310;55.586;12.286;2022-07-29T17:53:22;21.30;58.20
31731;DHT22;18310;55.586;12.286;2022-07-29T17:56:25;19.50;57.50
31731;DHT22;18310;55.586;12.286;2022-07-29T17:59:28;22.70;59.20
31731;DHT22;18310;55.586;12.286;2022-07-29T18:02:31;20.50;58.10
31731;DHT22;18310;55.586;12.286;2022-07-29T18:05:35;21.00;58.60
31731;DHT22;18310;55.586;12.286;2022-07-29T18:08:40;21.00;58.70
31731;DHT22;18310;55.586;12.286;2022-07-29T18:11:43;21.00;58.90
31731;DHT22;18310;55.586;12.286;2022-07-29T18:14:47;20.90;59.00
31731;DHT22;18310;55.586;12.286;2022-07-29T18:17:50;20.90;59.00
31731;DHT22;18310;55.586;12.286;2022-07-29T18:20:58;20.80;59.20
31731;DHT22;18310;55.586;12.286;2022-07-29T18:24:03;20.80;59.40
31731;DHT22;18310;55.586;12.286;2022-07-29T18:27:06;20.70;59.50
31731;DHT22;18310;55.586;12.286;2022-07-29T18:30:10;20.60;59.70
31731;DHT22;18310;55.586;12.286;2022-07-29T18:33:15;20.60;59.70
31731;DHT22;18310;55.586;12.286;2022-07-29T18:36:23;20.50;60.00
31731;DHT22;18310;55.586;12.286;2022-07-29T18:39:27;20.50;60.00
31731;DHT22;18310;55.586;12.286;2022-07-29T18:42:31;20.40;60.20
31731;DHT22;18310;55.586;12.286;2022-07-29T18:45:35;20.40;60.40
31731;DHT22;18310;55.586;12.286;2022-07-29T18:48:40;20.40;60.20
31731;DHT22;18310;55.586;12.286;2022-07-29T18:51:44;20.30;60.10
31731;DHT22;18310;55.586;12.286;2022-07-29T18:54:49;22.20;61.10
31731;DHT22;18310;55.586;12.286;2022-07-29T18:57:52;20.20;60.00
31731;DHT22;18310;55.586;12.286;2022-07-29T19:00:58;21.80;60.90
31731;DHT22;18310;55.586;12.286;2022-07-29T19:04:03;20.10;60.00
31731;DHT22;18310;55.586;12.286;2022-07-29T19:07:06;20.20;60.10
31731;DHT22;18310;55.586;12.286;2022-07-29T19:10:11;20.10;60.10
31731;DHT22;18310;55.586;12.286;2022-07-29T19:13:14;20.10;60.40
31731;DHT22;18310;55.586;12.286;2022-07-29T19:16:17;20.00;60.40
31731;DHT22;18310;55.586;12.286;2022-07-29T19:19:21;21.60;61.60
31731;DHT22;18310;55.586;12.286;2022-07-29T19:22:24;20.00;60.80